Time;durP1;ratioP1;P1;durP2;ratioP2;P2;SDS_P1;SDS_P2;PMS_P1;PMS_P2;Temp;Humidity;BMP_temperature;BMP_pressure;BME280_temperature;BME280_humidity;BME280_pressure;Samples;Min_cycle;Max_cycle;Signal;HPM_P1;HPM_P2
2022/12/26 00:01:25;;;;;;;3.22;2.00;;;;;;;10.17;100.00;98706.63;5033422;28;20100;-75
2022/12/26 00:03:51;;;;;;;4.90;1.73;;;;;;;10.31;100.00;98719.16;5035613;28;20030;-75
2022/12/26 00:06:20;;;;;;;3.65;1.92;;;;;;;10.28;100.00;98705.22;5047698;28;20021;-75
2022/12/26 00:08:46;;;;;;;4.47;2.20;;;;;;;10.34;100.00;98727.91;5054150;28;20068;-76
2022/12/26 00:11:11;;;;;;;3.90;1.83;;;;;;;9.58;100.00;98602.66;5076790;22;20040;-74
2022/12/26 00:13:39;;;;;;;2.42;1.60;;;;;;;10.36;100.00;98728.53;5024373;28;20125;-74
2022/12/26 00:16:11;;;;;;;4.10;2.10;;;;;;;10.35;100.00;98727.72;5005382;28;20467;-80
2022/12/26 00:18:37;;;;;;;3.55;1.98;;;;;;;10.36;100.00;98723.13;5027356;28;20045;-75
2022/12/26 00:21:04;;;;;;;2.65;1.60;;;;;;;10.33;100.00;98718.13;5019773;28;20044;-75
2022/12/26 00:23:31;;;;;;;4.65;1.92;;;;;;;10.47;100.00;98730.66;5014971;28;20510;-75
2022/12/26 00:26:01;;;;;;;7.80;1.80;;;;;;;10.29;100.00;98710.41;4997130;28;20036;-73
2022/12/26 00:28:27;;;;;;;3.80;1.90;;;;;;;10.37;100.00;98730.19;4995762;28;20483;-74
2022/12/26 00:30:52;;;;;;;3.05;1.88;;;;;;;10.23;100.00;98716.63;5012917;28;20121;-74
2022/12/26 00:33:17;;;;;;;4.32;2.15;;;;;;;10.28;100.00;98724.16;5014710;28;20041;-74
2022/12/26 00:35:42;;;;;;;3.70;2.35;;;;;;;10.25;100.00;98728.06;4997453;28;20028;-75
2022/12/26 00:38:08;;;;;;;4.55;2.15;;;;;;;10.15;100.00;98714.09;5010543;28;20650;-74
2022/12/26 00:40:33;;;;;;;4.55;2.20;;;;;;;10.16;100.00;98713.03;5014153;28;20104;-74
2022/12/26 00:42:58;;;;;;;6.25;2.55;;;;;;;9.92;100.00;98700.91;5005423;28;20030;-72
2022/12/26 00:45:23;;;;;;;3.85;2.10;;;;;;;9.83;100.00;98724.56;5009935;28;20036;-75
2022/12/26 00:47:49;;;;;;;4.50;2.53;;;;;;;9.75;100.00;98727.44;5011709;28;20034;-74
2022/12/26 00:50:14;;;;;;;4.05;2.40;;;;;;;9.75;100.00;98748.22;5013596;28;20026;-73
2022/12/26 00:52:39;;;;;;;6.32;2.25;;;;;;;9.68;100.00;98726.56;4996635;28;20021;-73
2022/12/26 00:55:05;;;;;;;4.13;2.03;;;;;;;9.70;100.00;98732.59;5013328;28;20026;-73
2022/12/26 00:57:30;;;;;;;6.70;2.00;;;;;;;9.64;100.00;98715.34;5012737;28;20060;-73
2022/12/26 00:59:55;;;;;;;3.60;2.33;;;;;;;9.70;100.00;98738.00;4996333;28;20033;-73
2022/12/26 01:02:39;;;;;;;4.45;1.92;;;;;;;9.56;100.00;98717.34;5014674;28;20521;-73
2022/12/26 01:05:09;;;;;;;3.17;2.10;;;;;;;9.64;100.00;98736.09;5013514;28;20017;-74
2022/12/26 01:07:36;;;;;;;3.90;2.28;;;;;;;9.73;100.00;98751.13;5013948;28;20061;-74
2022/12/26 01:10:04;;;;;;;4.05;2.10;;;;;;;9.81;100.00;98748.25;5013621;28;20056;-74
2022/12/26 01:12:30;;;;;;;4.47;1.90;;;;;;;9.66;100.00;98712.41;5012501;28;20033;-74
2022/12/26 01:14:56;;;;;;;3.97;2.05;;;;;;;9.69;100.00;98736.31;5013428;28;20547;-74
2022/12/26 01:17:21;;;;;;;3.13;2.00;;;;;;;9.55;100.00;98724.63;5011962;28;20042;-74
2022/12/26 01:19:46;;;;;;;3.83;2.40;;;;;;;9.37;100.00;98730.53;5013186;28;20026;-74
2022/12/26 01:22:12;;;;;;;5.28;2.05;;;;;;;9.31;100.00;98720.53;5013881;28;20029;-74
2022/12/26 01:24:37;;;;;;;4.88;2.40;;;;;;;9.23;100.00;98723.38;5013473;28;20026;-74
2022/12/26 01:27:02;;;;;;;4.13;2.38;;;;;;;9.19;100.00;98714.00;5013226;28;20033;-74
2022/12/26 01:29:28;;;;;;;3.67;2.22;;;;;;;9.32;100.00;98749.19;5012616;28;20376;-74
2022/12/26 01:31:53;;;;;;;5.28;2.28;;;;;;;9.18;100.00;98728.53;5012869;28;20037;-74
2022/12/26 01:34:18;;;;;;;3.85;2.35;;;;;;;9.19;100.00;98733.72;5006063;28;20498;-74
2022/12/26 01:36:44;;;;;;;3.95;2.47;;;;;;;9.09;100.00;98735.94;5008929;28;21005;-73
2022/12/26 01:39:09;;;;;;;4.75;2.20;;;;;;;9.17;100.00;98752.00;5013269;28;20033;-74
2022/12/26 01:41:35;;;;;;;4.45;2.40;;;;;;;9.16;100.00;98744.91;5005287;28;20026;-74
2022/12/26 01:44:03;;;;;;;4.30;2.58;;;;;;;9.10;100.00;98747.56;5013204;28;20025;-74
2022/12/26 01:46:37;;;;;;;3.05;1.85;;;;;;;9.04;100.00;98742.94;5013304;28;20076;-74
2022/12/26 01:49:18;;;;;;;3.80;2.40;;;;;;;9.00;100.00;98742.50;4995447;28;20128;-74
2022/12/26 01:51:50;;;;;;;5.85;2.28;;;;;;;8.96;100.00;98744.75;5011794;28;20040;-74
2022/12/26 01:54:16;;;;;;;3.20;2.22;;;;;;;8.95;100.00;98740.38;5012823;28;20510;-74
2022/12/26 01:56:44;;;;;;;3.13;2.03;;;;;;;8.96;100.00;98755.56;5012791;28;20030;-74
2022/12/26 01:59:23;;;;;;;4.65;2.03;;;;;;;8.84;100.00;98735.50;5012918;28;20030;-74
2022/12/26 02:01:52;;;;;;;4.53;2.10;;;;;;;9.03;100.00;98744.81;5011131;28;20087;-74
2022/12/26 02:07:06;;;;;;;3.30;2.38;;;;;;;9.02;100.00;98750.41;5011442;28;20040;-74
2022/12/26 02:09:32;;;;;;;3.33;2.13;;;;;;;8.93;100.00;98755.09;5011248;28;20113;-74
2022/12/26 02:12:03;;;;;;;2.90;2.10;;;;;;;8.88;100.00;98758.38;5010567;28;20037;-74
2022/12/26 02:14:29;;;;;;;6.78;2.60;;;;;;;8.89;100.00;98751.97;5005799;28;20026;-74
2022/12/26 02:16:54;;;;;;;3.78;2.17;;;;;;;9.03;100.00;98765.56;5012604;28;20030;-74
2022/12/26 02:19:41;;;;;;;3.67;2.03;;;;;;;9.02;100.00;98751.25;5011633;28;20037;-74
2022/12/26 02:22:35;;;;;;;4.60;2.13;;;;;;;9.09;100.00;98753.97;5005384;28;20030;-74
2022/12/26 02:25:09;;;;;;;2.50;1.88;;;;;;;9.05;100.00;98758.94;5004978;28;20029;-74
2022/12/26 02:27:41;;;;;;;2.95;1.98;;;;;;;9.00;100.00;98731.69;4994849;28;20387;-74
2022/12/26 02:30:28;;;;;;;6.65;1.80;;;;;;;9.11;100.00;98741.97;5012454;28;20021;-74
2022/12/26 02:33:12;;;;;;;3.40;2.20;;;;;;;9.19;100.00;98743.69;5011268;28;20026;-74
2022/12/26 02:36:05;;;;;;;2.90;1.98;;;;;;;9.25;100.00;98737.53;5003007;28;20036;-74
2022/12/26 02:39:00;;;;;;;2.85;1.67;;;;;;;9.24;100.00;98751.19;5012184;28;20038;-74
2022/12/26 02:41:46;;;;;;;3.40;2.03;;;;;;;9.24;100.00;98752.03;5012004;28;20514;-74
2022/12/26 02:47:18;;;;;;;3.97;2.10;;;;;;;9.32;100.00;98770.78;5012770;28;20033;-74
2022/12/26 03:13:15;;;;;;;2.97;1.80;;;;;;;9.48;100.00;98741.81;5004619;28;20091;-74
2022/12/26 03:18:48;;;;;;;3.42;1.92;;;;;;;9.52;100.00;98746.63;5011253;28;20419;-74
2022/12/26 03:21:18;;;;;;;4.55;2.08;;;;;;;9.38;100.00;98716.00;4994424;28;20026;-74
2022/12/26 03:23:46;;;;;;;4.88;1.70;;;;;;;9.59;100.00;98738.59;5011494;28;20084;-73
2022/12/26 03:31:44;;;;;;;4.55;1.67;;;;;;;9.35;100.00;98710.16;4971692;28;20506;-73
2022/12/26 03:34:17;;;;;;;2.38;1.58;;;;;;;9.57;100.00;98713.63;5009592;28;20033;-75
2022/12/26 03:37:21;;;;;;;3.10;1.90;;;;;;;9.68;100.00;98731.97;5010201;28;20419;-74
2022/12/26 04:20:48;;;;;;;3.72;1.92;;;;;;;9.83;100.00;98756.16;4995172;28;20498;-73
2022/12/26 04:46:04;;;;;;;3.90;2.10;;;;;;;10.11;100.00;98731.75;4995822;28;20037;-72
2022/12/26 04:51:14;;;;;;;6.53;1.90;;;;;;;10.24;100.00;98703.91;5008662;28;20085;-72
2022/12/26 04:53:39;;;;;;;4.50;2.38;;;;;;;10.31;100.00;98713.75;5014495;28;20053;-75
2022/12/26 04:56:04;;;;;;;5.00;1.92;;;;;;;10.30;100.00;98697.75;4996753;28;20567;-75
2022/12/26 04:58:30;;;;;;;3.03;1.70;;;;;;;10.62;100.00;98706.97;5012806;28;20522;-75
2022/12/26 05:09:32;;;;;;;4.38;2.33;;;;;;;10.70;100.00;98733.81;4996198;28;20564;-74
2022/12/26 05:09:34;;;;;;;5.53;1.67;;;;;;;10.58;100.00;98719.22;5014026;28;20084;-74
2022/12/26 05:12:04;;;;;;;3.15;1.77;;;;;;;10.63;100.00;98737.53;5004745;28;20026;-73
2022/12/26 05:14:30;;;;;;;1.90;1.40;;;;;;;10.53;100.00;98711.75;5014335;28;20034;-74
2022/12/26 05:30:47;;;;;;;4.65;1.70;;;;;;;10.53;100.00;98724.41;5000418;28;20029;-74
2022/12/26 05:35:57;;;;;;;2.75;1.77;;;;;;;10.57;100.00;98736.50;5013730;28;20032;-74
2022/12/26 05:38:22;;;;;;;2.92;1.85;;;;;;;10.62;100.00;98725.06;4981219;28;20034;-75
2022/12/26 05:40:48;;;;;;;2.70;1.60;;;;;;;10.64;100.00;98733.81;4995856;28;20026;-74
2022/12/26 05:43:13;;;;;;;3.58;1.80;;;;;;;10.58;100.00;98727.34;4995474;28;20021;-74
2022/12/26 05:45:38;;;;;;;2.80;1.25;;;;;;;10.67;100.00;98738.81;4994309;28;20022;-74
2022/12/26 05:48:04;;;;;;;5.90;1.83;;;;;;;10.52;100.00;98730.88;5008367;28;20018;-73
2022/12/26 05:50:29;;;;;;;3.05;1.73;;;;;;;10.59;100.00;98745.25;5013080;28;20476;-73
2022/12/26 05:52:58;;;;;;;2.55;1.75;;;;;;;10.43;100.00;98727.53;5011693;28;20541;-73
2022/12/26 05:55:24;;;;;;;2.85;1.52;;;;;;;10.60;100.00;98755.03;5009110;28;20053;-73
2022/12/26 05:57:50;;;;;;;3.38;1.73;;;;;;;10.46;100.00;98724.41;5012957;28;20488;-73
2022/12/26 06:00:16;;;;;;;4.78;1.90;;;;;;;10.47;100.00;98741.47;4999081;28;20021;-72
2022/12/26 06:02:41;;;;;;;3.63;1.70;;;;;;;10.47;100.00;98736.06;5010994;28;20026;-74
2022/12/26 06:05:07;;;;;;;3.72;1.95;;;;;;;10.42;100.00;98728.53;5009964;28;20061;-75
2022/12/26 06:07:32;;;;;;;2.80;1.90;;;;;;;10.39;100.00;98722.72;5008416;28;20026;-79
2022/12/26 06:09:57;;;;;;;5.32;2.15;;;;;;;10.40;100.00;98729.78;4994356;28;20037;-79
2022/12/26 06:12:23;;;;;;;4.68;2.17;;;;;;;10.52;100.00;98744.41;4991230;28;20418;-79
2022/12/26 06:14:48;;;;;;;4.50;1.70;;;;;;;10.44;100.00;98747.28;5012146;28;20026;-82
2022/12/26 06:17:13;;;;;;;3.85;1.70;;;;;;;10.55;100.00;98762.09;5011677;28;20483;-79
2022/12/26 06:19:39;;;;;;;3.35;1.77;;;;;;;10.44;100.00;98750.00;5012967;28;20032;-82
2022/12/26 06:22:04;;;;;;;2.38;1.38;;;;;;;10.39;100.00;98747.06;5013642;28;20025;-80
2022/12/26 06:24:29;;;;;;;3.60;1.60;;;;;;;10.33;100.00;98739.78;5014860;28;20022;-81
2022/12/26 06:26:55;;;;;;;3.03;1.70;;;;;;;10.41;100.00;98739.59;5015651;28;20372;-81
2022/12/26 06:29:20;;;;;;;6.97;2.13;;;;;;;10.41;100.00;98745.81;5014598;28;20026;-80
2022/12/26 06:31:45;;;;;;;3.00;1.70;;;;;;;10.55;100.00;98765.63;4994895;28;20048;-78
2022/12/26 06:34:11;;;;;;;4.60;1.90;;;;;;;10.59;100.00;98764.19;4993050;28;20038;-78
2022/12/26 06:36:37;;;;;;;3.55;2.50;;;;;;;10.54;100.00;98753.16;4984392;28;20061;-80
2022/12/26 06:39:02;;;;;;;3.17;2.00;;;;;;;10.57;100.00;98763.56;5010474;28;20022;-78
2022/12/26 06:41:27;;;;;;;3.08;1.98;;;;;;;10.42;100.00;98747.47;5002459;28;20021;-79
2022/12/26 06:43:53;;;;;;;3.78;1.88;;;;;;;10.48;100.00;98732.34;4995539;28;20365;-79
2022/12/26 06:46:21;;;;;;;2.33;1.38;;;;;;;10.31;100.00;98710.22;4993102;28;20018;-78
2022/12/26 06:48:47;;;;;;;3.97;1.88;;;;;;;10.56;100.00;98742.09;4983161;28;20373;-78
2022/12/26 06:51:20;;;;;;;6.15;1.85;;;;;;;10.66;100.00;98740.69;5003176;28;20117;-79
2022/12/26 06:53:47;;;;;;;2.55;1.58;;;;;;;10.62;100.00;98747.53;4986976;28;20113;-79
2022/12/26 06:56:16;;;;;;;3.47;1.55;;;;;;;10.63;100.00;98753.78;4994604;28;20033;-79
2022/12/26 06:58:42;;;;;;;3.35;1.80;;;;;;;10.52;100.00;98753.34;5010852;28;20248;-82
2022/12/26 07:01:11;;;;;;;6.28;1.70;;;;;;;10.58;100.00;98748.97;4984621;28;20030;-83
2022/12/26 07:03:44;;;;;;;4.38;1.75;;;;;;;10.60;100.00;98752.31;4997496;28;20547;-79
2022/12/26 07:06:20;;;;;;;2.65;1.65;;;;;;;10.60;100.00;98763.13;4997029;28;20034;-81
2022/12/26 07:08:46;;;;;;;4.35;1.73;;;;;;;10.45;100.00;98741.69;4999083;28;20022;-79
2022/12/26 07:11:17;;;;;;;2.78;1.45;;;;;;;10.60;100.00;98767.72;4994338;28;20430;-82
2022/12/26 07:13:42;;;;;;;3.97;1.67;;;;;;;10.36;100.00;98734.78;5014623;28;20106;-82
2022/12/26 07:16:08;;;;;;;3.42;1.80;;;;;;;10.48;100.00;98762.09;5016390;28;20458;-80
2022/12/26 07:18:33;;;;;;;4.82;1.60;;;;;;;10.41;100.00;98758.53;5000253;28;20037;-80
2022/12/26 07:20:59;;;;;;;2.33;1.60;;;;;;;10.51;100.00;98780.59;4993934;28;20407;-78
2022/12/26 07:23:24;;;;;;;4.85;1.67;;;;;;;10.48;100.00;98783.72;4990133;28;20121;-82
2022/12/26 07:25:50;;;;;;;3.88;2.10;;;;;;;10.34;100.00;98799.03;4992511;28;20034;-79
2022/12/26 07:28:15;;;;;;;2.75;1.75;;;;;;;9.96;100.00;98768.91;4984183;28;20109;-70
2022/12/26 07:30:48;;;;;;;5.45;3.17;;;;;;;9.81;100.00;98786.06;5012366;28;20032;-80
2022/12/26 07:33:13;;;;;;;7.07;3.80;;;;;;;9.66;100.00;98794.28;4997890;28;20025;-77
2022/12/26 07:35:38;;;;;;;9.95;4.07;;;;;;;9.55;100.00;98805.63;4996973;28;20553;-74
2022/12/26 07:38:04;;;;;;;7.65;4.93;;;;;;;9.43;100.00;98809.91;5016165;28;20483;-74
2022/12/26 07:40:29;;;;;;;5.65;3.35;;;;;;;9.38;100.00;98794.31;4996910;28;20022;-78
2022/12/26 07:42:54;;;;;;;4.65;3.17;;;;;;;9.31;100.00;98811.50;4996768;28;20545;-80
2022/12/26 07:45:19;;;;;;;5.72;3.10;;;;;;;9.19;100.00;98806.59;4994796;28;20092;-73
2022/12/26 07:47:45;;;;;;;7.43;2.78;;;;;;;9.09;100.00;98789.06;5013601;28;20022;-74
2022/12/26 07:50:10;;;;;;;4.82;3.13;;;;;;;9.28;100.00;98810.00;4994732;28;20034;-71
2022/12/26 07:52:36;;;;;;;5.68;2.95;;;;;;;9.32;100.00;98830.19;5015364;28;20471;-71
2022/12/26 07:55:03;;;;;;;6.80;2.88;;;;;;;9.29;100.00;98835.97;4996096;28;20373;-73
2022/12/26 07:57:28;;;;;;;3.53;2.50;;;;;;;9.24;100.00;98851.09;5014393;28;20050;-71
2022/12/26 07:59:54;;;;;;;5.18;2.80;;;;;;;9.06;100.00;98829.94;5010573;28;20068;-72
2022/12/26 08:02:19;;;;;;;5.22;2.70;;;;;;;9.00;100.00;98818.88;5016070;28;20026;-77
2022/12/26 08:04:45;;;;;;;5.43;2.85;;;;;;;9.08;100.00;98820.63;4990006;28;20181;-75
2022/12/26 08:07:11;;;;;;;6.50;2.85;;;;;;;8.95;100.00;98802.44;5016262;28;20484;-80
2022/12/26 08:09:38;;;;;;;4.38;2.70;;;;;;;9.08;100.00;98827.88;4996201;28;20109;-80
2022/12/26 08:12:04;;;;;;;5.93;2.90;;;;;;;9.07;100.00;98821.66;5009393;28;20038;-79
2022/12/26 08:14:29;;;;;;;4.20;2.63;;;;;;;9.13;100.00;98830.84;5001170;28;20047;-80
2022/12/26 08:16:54;;;;;;;5.07;2.60;;;;;;;9.11;100.00;98832.91;4997284;28;20073;-80
2022/12/26 08:19:19;;;;;;;6.45;3.13;;;;;;;9.14;100.00;98838.75;5002798;28;20040;-77
2022/12/26 08:21:45;;;;;;;5.93;2.67;;;;;;;9.02;100.00;98815.19;5016157;28;20037;-75
2022/12/26 08:24:10;;;;;;;8.43;3.92;;;;;;;8.91;100.00;98808.44;4986136;28;20468;-80
2022/12/26 08:26:35;;;;;;;6.75;4.03;;;;;;;9.08;100.00;98827.88;5000230;28;20032;-79
2022/12/26 08:29:01;;;;;;;8.18;4.85;;;;;;;9.18;100.00;98850.00;4997853;28;20028;-86
2022/12/26 08:31:27;;;;;;;10.07;5.47;;;;;;;9.08;100.00;98839.50;5002947;28;20088;-75
2022/12/26 08:33:55;;;;;;;8.27;4.45;;;;;;;9.06;100.00;98827.25;4990018;28;20030;-74
2022/12/26 08:36:21;;;;;;;8.23;4.65;;;;;;;9.17;100.00;98842.94;5017202;28;20663;-85
2022/12/26 08:38:46;;;;;;;9.07;4.90;;;;;;;9.15;100.00;98845.00;4991764;28;20033;-74
2022/12/26 08:41:11;;;;;;;6.70;3.55;;;;;;;9.25;100.00;98871.63;5014546;28;20034;-73
2022/12/26 08:43:38;;;;;;;7.60;3.00;;;;;;;9.20;100.00;98874.94;5013663;28;20022;-88
2022/12/26 08:46:07;;;;;;;4.47;2.60;;;;;;;8.93;100.00;98855.78;4969886;28;20054;-83
2022/12/26 08:48:33;;;;;;;4.28;2.60;;;;;;;8.87;100.00;98863.78;5014009;28;20032;-79
2022/12/26 08:51:02;;;;;;;8.55;2.63;;;;;;;9.02;100.00;98898.84;5013689;28;20033;-80
2022/12/26 08:53:28;;;;;;;7.22;2.95;;;;;;;9.07;100.00;98918.00;5014234;28;20033;-73
2022/12/26 08:55:54;;;;;;;6.75;3.15;;;;;;;8.91;100.00;98919.88;5012799;28;20405;-76
2022/12/26 08:58:20;;;;;;;5.35;2.80;;;;;;;8.95;100.00;98926.56;5009558;28;20018;-76
2022/12/26 09:00:46;;;;;;;8.57;3.00;;;;;;;9.00;100.00;98951.13;5012707;28;20026;-72
2022/12/26 09:03:11;;;;;;;5.32;3.05;;;;;;;9.00;100.00;98975.41;5011979;28;20546;-73
2022/12/26 09:05:37;;;;;;;7.22;3.15;;;;;;;8.84;100.00;98966.69;4991802;28;20046;-72
2022/12/26 09:08:02;;;;;;;5.97;2.85;;;;;;;8.84;100.00;98964.81;5002222;28;20033;-73
2022/12/26 09:10:27;;;;;;;9.32;2.67;;;;;;;8.97;100.00;98983.06;5011250;28;20022;-73
2022/12/26 09:12:52;;;;;;;6.78;2.65;;;;;;;8.89;100.00;98964.28;4990547;28;20030;-74
2022/12/26 09:15:18;;;;;;;4.63;3.10;;;;;;;8.96;100.00;98968.72;4997508;28;20120;-78
2022/12/26 09:17:43;;;;;;;6.05;3.10;;;;;;;9.08;100.00;98968.22;4996713;28;20040;-82
2022/12/26 09:20:09;;;;;;;6.45;2.83;;;;;;;9.07;100.00;98951.22;4995227;28;20033;-79
2022/12/26 09:22:49;;;;;;;5.65;2.60;;;;;;;9.18;100.00;98955.28;5000412;28;20048;-77
2022/12/26 09:25:16;;;;;;;5.93;3.20;;;;;;;9.43;100.00;98978.19;5001360;28;20022;-75
2022/12/26 09:27:41;;;;;;;7.97;2.83;;;;;;;9.38;100.00;98985.19;5012922;28;20037;-75
2022/12/26 09:30:07;;;;;;;8.88;3.08;;;;;;;9.40;100.00;98978.56;5013951;28;20037;-86
2022/12/26 09:32:34;;;;;;;5.10;3.15;;;;;;;9.50;100.00;99009.81;4988962;28;20116;-77
2022/12/26 09:34:59;;;;;;;4.80;2.88;;;;;;;9.40;100.00;98993.91;5015132;28;20037;-85
2022/12/26 09:37:25;;;;;;;5.38;2.95;;;;;;;9.46;100.00;99011.22;4997048;28;20030;-86
2022/12/26 09:39:51;;;;;;;7.22;2.80;;;;;;;9.52;100.00;99010.47;5005961;28;20072;-72
2022/12/26 09:42:30;;;;;;;4.07;2.58;;;;;;;9.56;100.00;99017.16;5003061;28;20026;-83
2022/12/26 09:45:07;;;;;;;6.38;2.67;;;;;;;9.65;100.00;99018.72;5026563;28;20563;-82
2022/12/26 09:47:32;;;;;;;4.32;2.33;;;;;;;9.68;100.00;99012.09;5010719;28;20041;-84
2022/12/26 09:50:12;;;;;;;4.47;1.92;;;;;;;9.68;100.00;99020.19;5006426;28;20109;-81
2022/12/26 09:52:46;;;;;;;2.92;1.92;;;;;;;9.41;100.00;98974.84;5002101;28;20030;-80
2022/12/26 09:55:17;;;;;;;6.10;1.80;;;;;;;9.66;100.00;99023.91;5017125;28;20668;-76
2022/12/26 09:57:48;;;;;;;6.10;2.08;;;;;;;9.61;100.00;99010.13;4988611;28;20045;-76
2022/12/26 10:00:20;;;;;;;3.42;1.70;;;;;;;9.66;100.00;99023.91;4999865;28;20029;-76
2022/12/26 10:02:52;;;;;;;3.20;1.77;;;;;;;9.49;100.00;99006.28;4991293;28;20025;-85
2022/12/26 10:05:21;;;;;;;2.17;1.45;;;;;;;9.64;100.00;99034.09;5014091;28;20021;-88
2022/12/26 10:07:58;;;;;;;3.92;1.55;;;;;;;9.52;100.00;99021.28;5008161;28;20118;-80
2022/12/26 10:10:36;;;;;;;2.75;1.45;;;;;;;9.63;100.00;99020.75;5017022;28;20487;-80
2022/12/26 10:13:29;;;;;;;3.10;1.13;;;;;;;9.61;100.00;99003.91;5000346;28;20030;-89
2022/12/26 10:16:20;;;;;;;3.97;1.50;;;;;;;9.62;100.00;98997.50;5003149;28;20112;-87
2022/12/26 10:18:48;;;;;;;2.58;1.30;;;;;;;9.73;100.00;99015.06;4999693;28;20041;-79
2022/12/26 10:21:36;;;;;;;1.50;1.10;;;;;;;9.53;100.00;99001.34;5001628;28;20037;-82
2022/12/26 10:24:12;;;;;;;3.22;1.25;;;;;;;9.65;100.00;99024.94;5004734;28;20021;-82
2022/12/26 10:26:45;;;;;;;3.78;1.20;;;;;;;9.51;100.00;99011.47;5004063;28;20443;-86
2022/12/26 10:29:32;;;;;;;3.15;1.20;;;;;;;9.71;100.00;99038.72;4999071;28;20065;-87
2022/12/26 10:32:10;;;;;;;2.33;1.20;;;;;;;9.72;100.00;99040.38;4991793;28;20027;-87
2022/12/26 10:34:41;;;;;;;3.45;1.27;;;;;;;9.65;100.00;99041.16;5016358;28;20033;-82
2022/12/26 10:37:23;;;;;;;2.25;1.70;;;;;;;9.65;100.00;99041.16;5002070;28;20503;-84
2022/12/26 10:40:00;;;;;;;3.90;2.25;;;;;;;9.65;100.00;99034.91;5016300;28;20060;-80
2022/12/26 10:42:41;;;;;;;3.33;2.42;;;;;;;9.67;100.00;99046.38;5015578;28;20109;-73
2022/12/26 10:45:28;;;;;;;3.60;1.90;;;;;;;9.57;100.00;99026.94;4995679;28;20037;-84
2022/12/26 10:47:54;;;;;;;4.13;1.77;;;;;;;9.48;100.00;99033.47;5000608;28;20032;-82
2022/12/26 10:50:26;;;;;;;2.92;1.65;;;;;;;9.44;100.00;99035.72;4999371;28;20515;-74
2022/12/26 10:52:52;;;;;;;2.78;1.25;;;;;;;9.46;100.00;99047.19;4992836;28;20575;-73
2022/12/26 10:55:19;;;;;;;2.38;1.08;;;;;;;9.50;100.00;99053.03;5007104;28;20056;-73
2022/12/26 10:57:51;;;;;;;1.75;1.25;;;;;;;9.52;100.00;99048.28;5006478;28;20042;-72
2022/12/26 11:00:22;;;;;;;3.30;1.70;;;;;;;9.50;100.00;99044.94;4984278;28;20065;-71
2022/12/26 11:03:09;;;;;;;4.63;1.20;;;;;;;9.40;100.00;99031.72;5005274;28;20498;-72
2022/12/26 11:05:37;;;;;;;2.30;0.95;;;;;;;9.47;100.00;99043.44;5009344;28;20036;-74
2022/12/26 11:08:22;;;;;;;1.80;0.83;;;;;;;9.42;100.00;99035.06;5007835;28;20026;-73
2022/12/26 11:11:06;;;;;;;3.45;1.25;;;;;;;9.47;100.00;99031.81;5006156;28;20032;-74
2022/12/26 11:13:37;;;;;;;1.77;0.90;;;;;;;9.41;100.00;99033.41;4989624;28;20080;-74
2022/12/26 11:16:04;;;;;;;4.05;1.38;;;;;;;9.32;100.00;99012.94;4985891;28;20026;-72
2022/12/26 11:18:47;;;;;;;2.15;1.20;;;;;;;9.44;100.00;99031.16;5007479;28;20022;-72
2022/12/26 11:21:20;;;;;;;3.38;1.52;;;;;;;9.39;100.00;99020.09;5004146;28;20033;-73
2022/12/26 11:23:48;;;;;;;2.63;1.92;;;;;;;9.28;100.00;98987.38;4989601;28;20121;-74
2022/12/26 11:26:25;;;;;;;2.97;1.60;;;;;;;9.31;100.00;98979.72;5005906;28;20025;-76
2022/12/26 11:29:17;;;;;;;2.13;1.40;;;;;;;9.34;100.00;99000.09;4989077;28;20130;-79
2022/12/26 11:31:56;;;;;;;4.20;2.08;;;;;;;9.20;100.00;98982.91;4993285;28;20085;-72
2022/12/26 11:34:36;;;;;;;;;;;;;;;9.31;100.00;99008.59;5007905;28;20113;-78
2022/12/26 11:37:04;;;;;;;3.75;1.90;;;;;;;9.23;100.00;98982.53;4994337;28;19964;-80
2022/12/26 11:39:33;;;;;;;3.40;1.83;;;;;;;9.35;100.00;99016.13;4996022;28;20029;-80
2022/12/26 11:41:59;;;;;;;2.95;2.00;;;;;;;9.23;100.00;98981.69;4995829;28;20108;-75
2022/12/26 11:44:31;;;;;;;3.90;1.70;;;;;;;9.43;100.00;98988.13;4991352;28;20529;-78
2022/12/26 11:47:06;;;;;;;2.92;1.70;;;;;;;9.48;100.00;98993.78;4997336;28;20060;-77
2022/12/26 11:49:38;;;;;;;3.10;1.40;;;;;;;9.59;100.00;99008.69;5010129;28;20032;-77
2022/12/26 11:52:34;;;;;;;3.08;2.05;;;;;;;9.72;100.00;99011.53;5008662;28;20104;-75
2022/12/26 11:55:00;;;;;;;3.42;1.40;;;;;;;9.68;100.00;99012.91;4996207;28;20517;-77
2022/12/26 11:57:32;;;;;;;3.00;1.92;;;;;;;9.61;100.00;99012.00;5009340;28;20038;-78
2022/12/26 12:00:19;;;;;;;4.22;1.65;;;;;;;9.62;100.00;99014.53;5003526;28;20503;-74
2022/12/26 12:02:44;;;;;;;2.33;1.35;;;;;;;9.58;100.00;99007.00;5000581;28;20180;-75
2022/12/26 12:05:39;;;;;;;4.60;1.75;;;;;;;9.50;100.00;99013.34;4992609;28;20547;-75
2022/12/26 12:08:13;;;;;;;4.70;2.30;;;;;;;9.61;100.00;99026.34;4987642;28;20057;-75
2022/12/26 12:11:01;;;;;;;7.18;2.58;;;;;;;9.63;100.00;99021.59;5006865;28;20037;-75
2022/12/26 12:13:38;;;;;;;4.88;2.10;;;;;;;9.62;100.00;98998.31;4988436;28;20036;-76
2022/12/26 12:16:03;;;;;;;7.88;2.47;;;;;;;9.76;100.00;98993.88;5008924;28;20136;-75
2022/12/26 12:18:53;;;;;;;7.18;2.30;;;;;;;10.03;100.00;98988.69;4999055;28;20109;-74
2022/12/26 12:21:33;;;;;;;6.38;2.42;;;;;;;10.17;100.00;98984.25;5012184;28;20045;-75
2022/12/26 12:24:26;;;;;;;6.88;2.47;;;;;;;10.07;100.00;98979.19;4993265;28;20180;-77
2022/12/26 12:26:58;;;;;;;5.72;2.92;;;;;;;10.05;100.00;98992.06;5013112;28;20546;-74
2022/12/26 12:29:49;;;;;;;6.95;3.00;;;;;;;9.92;100.00;98970.31;4993410;28;20084;-77
2022/12/26 12:32:23;;;;;;;5.32;2.88;;;;;;;9.95;100.00;98983.44;5011633;28;20061;-77
2022/12/26 12:35:20;;;;;;;5.40;2.30;;;;;;;9.96;100.00;98968.91;5012880;28;20563;-77
2022/12/26 12:38:18;;;;;;;6.15;2.42;;;;;;;9.83;100.00;98962.34;4994653;28;20049;-76
2022/12/26 12:41:12;;;;;;;5.78;2.10;;;;;;;9.86;100.00;98970.06;5013038;28;20085;-74
2022/12/26 12:44:15;;;;;;;3.97;2.60;;;;;;;9.83;100.00;98985.84;5007682;28;20803;-74
2022/12/26 12:46:52;;;;;;;3.08;1.67;;;;;;;9.86;100.00;98980.88;5012443;28;20084;-74
2022/12/26 12:49:33;;;;;;;4.60;2.25;;;;;;;9.88;100.00;98965.31;4994446;28;20022;-75
2022/12/26 12:52:40;;;;;;;4.43;1.98;;;;;;;9.98;100.00;98972.22;4995249;28;20029;-76
2022/12/26 12:55:15;;;;;;;3.60;1.90;;;;;;;10.00;100.00;98978.28;5008403;28;20036;-76
2022/12/26 12:57:43;;;;;;;3.83;1.80;;;;;;;9.97;100.00;98981.38;4998154;28;20033;-75
2022/12/26 13:00:37;;;;;;;3.40;2.10;;;;;;;9.92;100.00;98975.72;5010354;28;20121;-74
2022/12/26 13:03:11;;;;;;;2.33;1.35;;;;;;;9.98;100.00;98970.41;5010594;28;20052;-76
2022/12/26 13:05:49;;;;;;;4.60;1.35;;;;;;;9.94;100.00;98958.28;5009602;28;20380;-75
2022/12/26 13:08:41;;;;;;;3.30;1.27;;;;;;;9.95;100.00;98954.53;4992033;28;20029;-75
2022/12/26 13:11:21;;;;;;;2.90;1.50;;;;;;;10.00;100.00;98956.66;4996666;28;20218;-75
2022/12/26 13:14:12;;;;;;;2.40;1.45;;;;;;;10.04;100.00;98957.97;4989830;28;20034;-75
2022/12/26 13:16:42;;;;;;;3.53;1.58;;;;;;;9.99;100.00;98950.44;4983265;28;20491;-75
2022/12/26 13:19:39;;;;;;;2.78;1.45;;;;;;;9.99;100.00;98965.81;4986537;28;20078;-75
2022/12/26 13:22:15;;;;;;;6.00;1.58;;;;;;;9.82;100.00;98949.03;4982672;28;20403;-75
2022/12/26 13:24:45;;;;;;;2.08;1.33;;;;;;;9.91;100.00;98964.09;5003914;28;20083;-76
2022/12/26 13:27:21;;;;;;;;;;;;;;;9.88;100.00;98953.69;5011101;28;20046;-75
2022/12/26 13:29:48;;;;;;;4.32;1.20;;;;;;;9.83;100.00;98943.44;4993482;28;19917;-76
2022/12/26 13:32:19;;;;;;;4.30;1.38;;;;;;;9.84;100.00;98947.81;4994815;28;20033;-76
2022/12/26 13:34:46;;;;;;;2.47;1.10;;;;;;;9.78;100.00;98932.38;4997388;28;20026;-75
2022/12/26 13:37:38;;;;;;;1.88;0.88;;;;;;;9.83;100.00;98937.22;4999336;28;20025;-75
2022/12/26 13:40:09;;;;;;;1.98;1.17;;;;;;;9.81;100.00;98934.69;5009609;28;20038;-75
2022/12/26 13:45:36;;;;;;;2.92;1.30;;;;;;;9.80;100.00;98949.25;5010583;28;20040;-76
2022/12/26 13:48:16;;;;;;;2.47;1.05;;;;;;;9.82;100.00;98944.47;5011673;28;20034;-75
2022/12/26 13:50:53;;;;;;;1.23;0.80;;;;;;;9.85;100.00;98940.53;4992583;28;20037;-74
2022/12/26 13:53:25;;;;;;;3.40;1.05;;;;;;;9.89;100.00;98933.72;4991068;28;20022;-74
2022/12/26 13:56:01;;;;;;;2.13;0.80;;;;;;;9.85;100.00;98938.69;5011633;28;20389;-75
2022/12/26 13:58:50;;;;;;;3.92;1.80;;;;;;;9.79;100.00;98949.41;4991532;28;20066;-73
2022/12/26 14:01:26;;;;;;;8.85;4.70;;;;;;;9.88;100.00;98959.91;5002681;28;20109;-73